Time;durP1;ratioP1;P1;durP2;ratioP2;P2;SDS_P1;SDS_P2;PMS_P1;PMS_P2;Temp;Humidity;BMP_temperature;BMP_pressure;BME280_temperature;BME280_humidity;BME280_pressure;Samples;Min_cycle;Max_cycle;Signal;HPM_P1;HPM_P2
2022/12/24 00:01:43;;;;;;;3.90;1.73;;;34.20;96.70;;;;;;5095233;28;20535;-66
2022/12/24 00:04:10;;;;;;;3.00;1.67;;;34.40;96.50;;;;;;5095037;28;20556;-69
2022/12/24 00:06:38;;;;;;;3.17;1.45;;;34.20;95.10;;;;;;5095162;28;20226;-67
2022/12/24 00:09:05;;;;;;;2.63;1.20;;;34.40;94.00;;;;;;5094794;28;20171;-72
2022/12/24 00:11:32;;;;;;;3.50;1.40;;;34.40;91.60;;;;;;5095267;28;20176;-68
2022/12/24 00:14:00;;;;;;;1.77;1.13;;;34.70;89.20;;;;;;5095003;28;20617;-67
2022/12/24 00:16:28;;;;;;;3.58;2.22;;;35.10;90.00;;;;;;5095194;28;20188;-67
2022/12/24 00:18:55;;;;;;;2.20;1.30;;;34.80;78.50;;;;;;5094806;28;20179;-67
2022/12/24 00:21:23;;;;;;;3.30;1.35;;;34.80;82.30;;;;;;5094863;28;20182;-67
2022/12/24 00:23:50;;;;;;;1.67;1.40;;;35.00;86.70;;;;;;5094867;28;20641;-75
2022/12/24 00:26:17;;;;;;;2.75;1.48;;;35.00;87.20;;;;;;5094979;28;20623;-66
2022/12/24 00:28:45;;;;;;;2.05;1.17;;;35.70;91.50;;;;;;5094719;28;20478;-67
2022/12/24 00:31:15;;;;;;;2.40;1.30;;;36.10;80.90;;;;;;5094568;28;20798;-67
2022/12/24 00:33:42;;;;;;;1.63;0.85;;;36.00;72.80;;;;;;5094327;28;20320;-67
2022/12/24 00:36:10;;;;;;;2.00;1.67;;;36.00;65.60;;;;;;5094416;28;20543;-66
2022/12/24 00:38:38;;;;;;;2.13;1.50;;;35.80;69.10;;;;;;5094611;28;20171;-70
2022/12/24 00:41:23;;;;;;;2.05;1.30;;;35.50;65.00;;;;;;5094894;28;20176;-67
2022/12/24 00:43:56;;;;;;;1.80;1.00;;;35.60;73.70;;;;;;5093224;28;20175;-67
2022/12/24 00:46:25;;;;;;;2.38;1.00;;;35.70;59.10;;;;;;5094351;28;20211;-68
2022/12/24 00:48:53;;;;;;;1.92;1.10;;;36.00;63.80;;;;;;5092956;28;20509;-67
2022/12/24 00:51:21;;;;;;;1.98;1.20;;;36.40;58.40;;;;;;5094532;28;20172;-67
2022/12/24 00:53:49;;;;;;;2.30;1.00;;;36.40;64.60;;;;;;5094434;28;20168;-68
2022/12/24 00:56:17;;;;;;;3.83;1.00;;;36.70;49.00;;;;;;5094077;28;20171;-67
2022/12/24 00:58:44;;;;;;;1.25;0.70;;;36.30;45.40;;;;;;5094117;28;20541;-67
2022/12/24 01:01:12;;;;;;;1.17;0.80;;;36.00;46.80;;;;;;5094133;28;20529;-67
2022/12/24 01:03:39;;;;;;;3.10;0.93;;;36.10;47.50;;;;;;5094215;28;20174;-67
2022/12/24 01:06:16;;;;;;;3.25;0.85;;;36.20;52.10;;;;;;5093914;28;20227;-67
2022/12/24 01:08:44;;;;;;;1.95;1.27;;;36.40;52.70;;;;;;5094437;28;20171;-75
2022/12/24 01:11:12;;;;;;;3.17;0.95;;;36.10;45.60;;;;;;5094449;28;20187;-67
2022/12/24 01:13:40;;;;;;;1.67;0.90;;;36.10;44.70;;;;;;5093883;28;20197;-74
2022/12/24 01:16:17;;;;;;;4.50;0.93;;;36.20;40.00;;;;;;5093948;28;20558;-70
2022/12/24 01:18:44;;;;;;;4.25;1.15;;;36.10;44.50;;;;;;5093703;28;20167;-68
2022/12/24 01:21:15;;;;;;;2.97;0.93;;;36.40;43.80;;;;;;5093811;28;20183;-68
2022/12/24 01:23:43;;;;;;;1.05;0.80;;;36.90;42.80;;;;;;5093832;28;20171;-68
2022/12/24 01:26:13;;;;;;;1.40;0.90;;;36.80;41.40;;;;;;5093592;28;20345;-68
2022/12/24 01:28:41;;;;;;;2.83;1.02;;;36.10;38.90;;;;;;5094032;28;20164;-68
2022/12/24 01:31:14;;;;;;;2.80;1.23;;;36.20;35.70;;;;;;5093751;28;20561;-67
2022/12/24 01:33:41;;;;;;;2.00;1.02;;;36.20;38.80;;;;;;5093694;28;20167;-68
2022/12/24 01:36:09;;;;;;;2.55;1.17;;;36.50;38.40;;;;;;5093674;28;20228;-68
2022/12/24 01:38:36;;;;;;;1.17;0.63;;;36.60;40.70;;;;;;5093583;28;20179;-68
2022/12/24 01:43:49;;;;;;;2.95;0.82;;;36.90;37.50;;;;;;5093671;28;20236;-69
2022/12/24 01:46:24;;;;;;;2.03;0.90;;;37.30;26.90;;;;;;5093412;28;20211;-70
2022/12/24 01:49:01;;;;;;;1.92;0.90;;;37.40;27.10;;;;;;5093232;28;20175;-69
2022/12/24 01:51:38;;;;;;;0.90;0.70;;;37.40;27.90;;;;;;5093950;28;20175;-67
2022/12/24 01:54:29;;;;;;;1.02;0.70;;;35.90;32.00;;;;;;5093419;28;20190;-68
2022/12/24 01:57:08;;;;;;;1.38;0.73;;;35.00;33.30;;;;;;5093441;28;20174;-68
2022/12/24 01:59:38;;;;;;;1.55;0.70;;;35.70;32.90;;;;;;5093186;28;20179;-68
2022/12/24 02:02:05;;;;;;;2.15;0.90;;;36.20;35.20;;;;;;5093270;28;20262;-72
2022/12/24 02:05:11;;;;;;;1.85;0.80;;;36.40;32.20;;;;;;5093064;28;20223;-68
2022/12/24 02:07:40;;;;;;;1.73;0.90;;;37.40;39.10;;;;;;5052886;28;20197;-67
2022/12/24 02:10:11;;;;;;;2.15;0.77;;;37.50;31.10;;;;;;5091987;28;20640;-68
2022/12/24 02:12:40;;;;;;;1.77;0.75;;;37.40;30.00;;;;;;5093264;28;20175;-68
2022/12/24 02:15:11;;;;;;;2.20;0.88;;;37.20;26.60;;;;;;5093023;28;20258;-68
2022/12/24 02:18:04;;;;;;;2.05;0.95;;;37.40;26.50;;;;;;5092961;28;20183;-74
2022/12/24 02:20:40;;;;;;;1.17;0.60;;;36.80;26.70;;;;;;5093152;28;20237;-68
2022/12/24 02:23:31;;;;;;;4.32;0.75;;;36.80;26.80;;;;;;5093190;28;20167;-68
2022/12/24 02:26:18;;;;;;;3.85;0.88;;;37.20;28.70;;;;;;5091697;28;20297;-68
2022/12/24 02:28:55;;;;;;;0.95;0.57;;;37.50;26.30;;;;;;5052018;28;20652;-68
2022/12/24 02:31:38;;;;;;;1.02;0.70;;;37.20;24.10;;;;;;5092951;28;20563;-75
2022/12/24 02:34:14;;;;;;;1.52;0.70;;;36.90;22.20;;;;;;5092991;28;20170;-68
2022/12/24 02:36:48;;;;;;;1.00;0.65;;;37.00;22.90;;;;;;5093093;28;20167;-68
2022/12/24 02:39:51;;;;;;;5.13;1.30;;;37.40;22.20;;;;;;5092795;28;20510;-69
2022/12/24 02:42:25;;;;;;;2.17;0.88;;;37.90;23.50;;;;;;5088874;28;20199;-67
2022/12/24 02:45:06;;;;;;;1.20;0.60;;;37.80;23.30;;;;;;5093210;28;20298;-68
2022/12/24 02:47:34;;;;;;;0.90;0.57;;;37.70;24.90;;;;;;5095062;28;20635;-68
2022/12/24 02:50:03;;;;;;;2.20;0.70;;;37.10;21.40;;;;;;5095524;28;20209;-68
2022/12/24 02:52:42;;;;;;;5.20;0.98;;;36.60;24.50;;;;;;5096512;28;20172;-71
2022/12/24 02:55:27;;;;;;;10.70;1.23;;;36.70;25.10;;;;;;5095260;28;20211;-68
2022/12/24 02:58:01;;;;;;;0.63;0.57;;;37.00;23.10;;;;;;5096548;28;20171;-68
2022/12/24 03:00:47;;;;;;;2.45;0.70;;;37.50;21.60;;;;;;5096731;28;20179;-68
2022/12/24 03:03:22;;;;;;;3.00;0.70;;;37.90;25.30;;;;;;5096715;28;20171;-70
2022/12/24 03:06:14;;;;;;;1.52;0.85;;;37.70;21.40;;;;;;5096358;28;20333;-68
2022/12/24 03:09:21;;;;;;;1.40;1.10;;;37.40;21.80;;;;;;5058452;28;20187;-68
2022/12/24 03:12:13;;;;;;;1.33;0.60;;;37.30;21.40;;;;;;5067932;28;20209;-67
2022/12/24 03:14:42;;;;;;;2.90;0.60;;;37.40;23.40;;;;;;5095670;28;20236;-67
2022/12/24 03:17:10;;;;;;;3.20;0.90;;;37.60;21.10;;;;;;5096221;28;20183;-67
2022/12/24 03:19:39;;;;;;;1.88;0.63;;;37.40;20.90;;;;;;5096181;28;20171;-67
2022/12/24 03:22:10;;;;;;;1.20;0.90;;;36.90;21.30;;;;;;5096103;28;20537;-66
2022/12/24 03:24:37;;;;;;;4.57;0.82;;;37.10;23.80;;;;;;5094484;28;20217;-67
2022/12/24 03:27:07;;;;;;;1.58;0.82;;;36.50;21.60;;;;;;5095958;28;20175;-67
2022/12/24 03:29:35;;;;;;;1.27;0.80;;;36.00;23.00;;;;;;5096027;28;20534;-66
2022/12/24 03:32:03;;;;;;;1.45;0.80;;;35.70;22.20;;;;;;5096029;28;20266;-67
2022/12/24 03:34:31;;;;;;;1.20;0.52;;;35.60;23.60;;;;;;5095694;28;20655;-68
2022/12/24 03:36:58;;;;;;;2.17;0.80;;;36.20;23.00;;;;;;5096025;28;20212;-67
2022/12/24 03:39:26;;;;;;;0.95;0.70;;;36.60;21.90;;;;;;5095533;28;20179;-67
2022/12/24 03:41:53;;;;;;;1.77;1.00;;;36.50;22.30;;;;;;5095674;28;20255;-66
2022/12/24 03:44:20;;;;;;;1.50;1.10;;;36.50;26.20;;;;;;5095504;28;20182;-67
2022/12/24 03:46:48;;;;;;;2.67;1.50;;;36.20;30.60;;;;;;5095523;28;20183;-67
2022/12/24 03:49:15;;;;;;;7.60;1.70;;;35.50;41.20;;;;;;5095397;28;20227;-75
2022/12/24 03:51:43;;;;;;;2.17;1.40;;;35.00;45.80;;;;;;5095488;28;20199;-68
2022/12/24 03:54:11;;;;;;;3.67;1.52;;;35.40;45.30;;;;;;5095269;28;20527;-67
2022/12/24 03:56:38;;;;;;;5.90;2.15;;;35.20;47.00;;;;;;5095451;28;20692;-67
2022/12/24 03:59:06;;;;;;;2.45;1.50;;;34.90;48.00;;;;;;5094953;28;20186;-67
2022/12/24 04:01:33;;;;;;;3.65;1.45;;;34.50;50.20;;;;;;5095341;28;20650;-67
2022/12/24 04:04:00;;;;;;;4.97;1.83;;;34.50;49.40;;;;;;5095198;28;20210;-66
2022/12/24 04:06:28;;;;;;;3.22;1.67;;;35.10;50.10;;;;;;5093792;28;20215;-67
2022/12/24 04:08:58;;;;;;;3.78;1.75;;;35.30;50.70;;;;;;5095145;28;20168;-77
2022/12/24 04:11:25;;;;;;;6.93;1.73;;;34.90;54.00;;;;;;5095371;28;20190;-70
2022/12/24 04:13:52;;;;;;;7.22;2.20;;;35.00;56.20;;;;;;5095232;28;20225;-68
2022/12/24 04:16:20;;;;;;;4.20;1.75;;;34.90;58.80;;;;;;5095020;28;20183;-68
2022/12/24 04:18:47;;;;;;;4.63;1.70;;;35.30;61.60;;;;;;5095057;28;20178;-67
2022/12/24 04:21:14;;;;;;;4.35;2.03;;;35.60;61.50;;;;;;5095114;28;20206;-66
2022/12/24 04:23:42;;;;;;;3.28;1.42;;;35.90;54.40;;;;;;5095189;28;20175;-66
2022/12/24 04:26:12;;;;;;;4.70;1.40;;;34.90;54.30;;;;;;5094919;28;20547;-68
2022/12/24 04:28:41;;;;;;;2.05;1.52;;;34.10;54.10;;;;;;5094813;28;20170;-68
2022/12/24 04:31:11;;;;;;;4.15;1.20;;;33.60;57.50;;;;;;5094783;28;20167;-67
2022/12/24 04:33:39;;;;;;;2.15;1.13;;;33.20;53.00;;;;;;5094944;28;20172;-67
2022/12/24 04:36:07;;;;;;;3.67;1.10;;;33.70;53.70;;;;;;5094602;28;20206;-67
2022/12/24 04:38:35;;;;;;;1.88;0.90;;;34.60;53.50;;;;;;5094827;28;20625;-67
2022/12/24 04:47:46;;;;;;;4.28;1.17;;;35.30;45.70;;;;;;5094143;28;20311;-72
2022/12/24 04:50:13;;;;;;;2.72;1.27;;;35.00;46.10;;;;;;5094444;28;20167;-67
2022/12/24 04:52:41;;;;;;;3.75;1.20;;;35.10;49.20;;;;;;5094549;28;20175;-68
2022/12/24 04:55:54;;;;;;;2.88;1.20;;;35.00;45.90;;;;;;5094218;28;20216;-70
2022/12/24 04:58:21;;;;;;;2.30;1.08;;;35.10;48.40;;;;;;5094408;28;20179;-77
2022/12/24 05:00:48;;;;;;;1.27;1.00;;;35.40;47.20;;;;;;5094189;28;20207;-68
2022/12/24 05:03:16;;;;;;;4.93;1.30;;;35.40;48.10;;;;;;5094433;28;20539;-75
2022/12/24 05:05:43;;;;;;;1.70;1.05;;;35.40;45.90;;;;;;5094170;28;20222;-67
2022/12/24 05:08:11;;;;;;;2.42;1.40;;;35.40;43.30;;;;;;5094289;28;20308;-67
2022/12/24 05:10:38;;;;;;;3.00;0.93;;;35.10;45.80;;;;;;5093515;28;20175;-70
2022/12/24 05:13:06;;;;;;;5.15;1.15;;;35.10;44.90;;;;;;5093979;28;20693;-74
2022/12/24 05:15:33;;;;;;;4.18;1.30;;;34.80;42.70;;;;;;5093831;28;20232;-68
2022/12/24 05:18:00;;;;;;;3.58;1.00;;;34.60;43.30;;;;;;5093658;28;20167;-75
2022/12/24 05:20:28;;;;;;;1.42;0.80;;;34.40;41.80;;;;;;5093928;28;20264;-77
2022/12/24 05:28:26;;;;;;;3.72;1.33;;;34.00;47.90;;;;;;5093890;28;20266;-67
2022/12/24 05:30:53;;;;;;;1.42;0.80;;;34.00;44.40;;;;;;5093742;28;20178;-68
2022/12/24 05:33:20;;;;;;;2.03;0.98;;;33.90;43.50;;;;;;5093762;28;20195;-68
2022/12/24 05:35:48;;;;;;;3.10;1.00;;;34.10;44.30;;;;;;5093478;28;20176;-67
2022/12/24 05:38:15;;;;;;;3.00;1.02;;;34.30;44.00;;;;;;5093375;28;20190;-67
2022/12/24 05:40:42;;;;;;;2.67;1.23;;;34.60;44.10;;;;;;5093535;28;20182;-71
2022/12/24 05:43:10;;;;;;;1.90;0.90;;;34.70;43.80;;;;;;5093541;28;20172;-76
2022/12/24 05:45:37;;;;;;;2.42;1.63;;;34.70;43.50;;;;;;5092117;28;20215;-68
2022/12/24 05:48:06;;;;;;;2.22;1.40;;;34.30;44.50;;;;;;5093400;28;20167;-71
2022/12/24 05:50:35;;;;;;;3.47;1.45;;;34.30;46.70;;;;;;5096388;28;20270;-75
2022/12/24 05:53:02;;;;;;;3.45;1.25;;;33.90;44.90;;;;;;5097484;28;20656;-68
2022/12/24 05:55:30;;;;;;;2.55;0.60;;;34.00;44.50;;;;;;5093226;28;20621;-75
2022/12/24 05:57:57;;;;;;;4.05;1.10;;;34.10;43.70;;;;;;5093195;28;20198;-71
2022/12/24 06:00:25;;;;;;;1.98;0.80;;;33.80;43.30;;;;;;5093302;28;20236;-67
2022/12/24 06:02:55;;;;;;;3.60;1.10;;;33.70;45.80;;;;;;5093000;28;20175;-67
2022/12/24 06:05:22;;;;;;;2.08;0.88;;;33.60;43.10;;;;;;5092860;28;20227;-67
2022/12/24 06:07:50;;;;;;;1.33;0.80;;;33.50;43.90;;;;;;5093144;28;20178;-67
2022/12/24 06:10:18;;;;;;;1.90;0.95;;;33.70;45.00;;;;;;5093118;28;20171;-67
2022/12/24 06:12:45;;;;;;;4.03;1.05;;;33.40;43.00;;;;;;5093084;28;20190;-75
2022/12/24 06:15:13;;;;;;;1.30;0.80;;;33.00;42.30;;;;;;5093198;28;20592;-69
2022/12/24 06:17:40;;;;;;;2.75;0.90;;;32.90;43.70;;;;;;5091324;28;20175;-67
2022/12/24 06:20:08;;;;;;;0.80;0.52;;;32.90;42.50;;;;;;5093131;28;20254;-76
2022/12/24 06:22:35;;;;;;;1.35;0.80;;;33.00;39.60;;;;;;5096611;28;20179;-67
2022/12/24 06:25:03;;;;;;;1.63;0.80;;;33.10;40.90;;;;;;5097208;28;20242;-67
2022/12/24 06:27:30;;;;;;;0.95;0.60;;;33.00;41.80;;;;;;5097264;28;20599;-75
2022/12/24 06:29:58;;;;;;;1.92;0.80;;;33.20;38.80;;;;;;5096926;28;20591;-67
2022/12/24 06:32:25;;;;;;;2.83;0.70;;;32.90;37.20;;;;;;5097116;28;20615;-70
2022/12/24 06:34:52;;;;;;;2.90;0.73;;;32.80;38.00;;;;;;5096881;28;20709;-68
2022/12/24 06:37:23;;;;;;;3.28;0.90;;;32.90;39.10;;;;;;5095622;28;20182;-67
2022/12/24 06:39:50;;;;;;;1.40;0.57;;;33.00;39.20;;;;;;5097191;28;20168;-67
2022/12/24 06:42:18;;;;;;;1.95;0.65;;;33.00;38.80;;;;;;5096851;28;20178;-76
2022/12/24 06:44:46;;;;;;;4.88;1.10;;;33.00;36.50;;;;;;5095408;28;20211;-67
2022/12/24 06:47:13;;;;;;;1.58;0.90;;;33.00;36.00;;;;;;5096793;28;20262;-67
2022/12/24 06:49:40;;;;;;;2.88;0.85;;;32.80;36.50;;;;;;5096655;28;20176;-67
2022/12/24 06:52:08;;;;;;;3.08;1.08;;;32.70;36.90;;;;;;5096904;28;20179;-68
2022/12/24 06:54:35;;;;;;;3.00;1.20;;;32.60;36.30;;;;;;5096774;28;20254;-77
2022/12/24 06:57:02;;;;;;;1.42;0.60;;;32.60;37.30;;;;;;5096719;28;20180;-68
2022/12/24 06:59:30;;;;;;;2.10;1.00;;;32.50;36.30;;;;;;5096466;28;20179;-67
2022/12/24 07:01:57;;;;;;;1.33;0.73;;;32.50;36.60;;;;;;5095230;28;20194;-75
2022/12/24 07:04:25;;;;;;;4.68;0.82;;;32.60;35.30;;;;;;5096055;28;20227;-74
2022/12/24 07:06:52;;;;;;;1.95;0.60;;;32.60;35.40;;;;;;5096570;28;20183;-67
2022/12/24 07:09:19;;;;;;;4.50;0.90;;;32.60;34.90;;;;;;5096325;28;20171;-67
2022/12/24 07:11:47;;;;;;;2.13;0.90;;;32.60;35.10;;;;;;5096338;28;20176;-69
2022/12/24 07:14:14;;;;;;;0.70;0.50;;;32.60;34.70;;;;;;5096229;28;20177;-71
2022/12/24 07:16:41;;;;;;;2.33;0.90;;;32.50;35.60;;;;;;5096258;28;20629;-68
2022/12/24 07:19:09;;;;;;;1.58;0.80;;;32.50;35.90;;;;;;5096107;28;20175;-66
2022/12/24 07:21:37;;;;;;;2.00;0.70;;;32.30;36.20;;;;;;5094944;28;20556;-67
2022/12/24 07:24:04;;;;;;;1.42;0.70;;;32.40;36.20;;;;;;5096022;28;20236;-75
2022/12/24 07:26:32;;;;;;;0.82;0.60;;;32.30;35.10;;;;;;5095874;28;20233;-75
2022/12/24 07:28:59;;;;;;;1.50;0.70;;;32.30;34.80;;;;;;5094489;28;20179;-73
2022/12/24 07:31:26;;;;;;;2.75;0.90;;;32.20;34.90;;;;;;5076221;28;20248;-73
2022/12/24 07:33:54;;;;;;;3.10;0.90;;;32.00;34.50;;;;;;5085539;28;20184;-71
2022/12/24 07:36:22;;;;;;;1.75;0.85;;;31.90;33.50;;;;;;5077947;28;20184;-71
2022/12/24 07:38:50;;;;;;;1.83;0.80;;;31.80;33.60;;;;;;5079096;28;20175;-70
2022/12/24 07:41:17;;;;;;;1.77;0.75;;;31.80;34.80;;;;;;5075360;28;20180;-69
2022/12/24 07:43:45;;;;;;;3.47;0.95;;;31.60;35.60;;;;;;5083436;28;20221;-70
2022/12/24 07:46:13;;;;;;;1.75;1.08;;;31.50;35.90;;;;;;5095563;28;20257;-68
2022/12/24 07:48:40;;;;;;;3.30;0.75;;;31.60;36.20;;;;;;5095616;28;20308;-67
2022/12/24 07:51:10;;;;;;;1.98;0.60;;;31.80;36.80;;;;;;5090120;28;20202;-68
2022/12/24 07:53:38;;;;;;;1.50;0.80;;;31.90;35.00;;;;;;5078048;28;20181;-68
2022/12/24 07:56:05;;;;;;;1.45;0.70;;;31.80;33.50;;;;;;5078263;28;20203;-68
2022/12/24 07:58:33;;;;;;;1.38;0.70;;;31.60;33.90;;;;;;5095356;28;20175;-68
2022/12/24 08:01:01;;;;;;;1.38;0.65;;;31.70;33.70;;;;;;5095498;28;20218;-69
2022/12/24 08:03:31;;;;;;;1.75;0.65;;;31.60;34.10;;;;;;5089042;28;20668;-68
2022/12/24 08:05:58;;;;;;;0.98;0.63;;;31.60;33.60;;;;;;5074715;28;20227;-68
2022/12/24 08:08:26;;;;;;;1.43;0.57;;;31.60;33.70;;;;;;5073850;28;20176;-68
2022/12/24 08:10:54;;;;;;;1.23;0.70;;;31.60;34.90;;;;;;5074761;28;20176;-68
2022/12/24 08:13:21;;;;;;;2.35;0.77;;;31.50;33.30;;;;;;5078953;28;20175;-68
2022/12/24 08:15:48;;;;;;;0.57;0.50;;;31.60;33.30;;;;;;5094887;28;20175;-69
2022/12/24 08:18:16;;;;;;;2.97;1.05;;;31.60;33.50;;;;;;5085735;28;20186;-70
2022/12/24 08:20:43;;;;;;;1.88;0.90;;;31.50;32.00;;;;;;5094707;28;20179;-68
2022/12/24 08:23:10;;;;;;;1.33;0.47;;;31.40;31.50;;;;;;5092005;28;20176;-68
2022/12/24 08:25:41;;;;;;;1.08;0.50;;;31.40;32.00;;;;;;5074592;28;20678;-72
2022/12/24 08:28:09;;;;;;;3.23;0.53;;;31.20;31.50;;;;;;5077752;28;20175;-68
2022/12/24 08:30:36;;;;;;;2.47;0.60;;;31.00;31.00;;;;;;5094585;28;20542;-69
2022/12/24 08:33:03;;;;;;;0.98;0.50;;;30.90;31.10;;;;;;5083757;28;20183;-68
2022/12/24 08:35:31;;;;;;;1.77;0.70;;;30.70;32.30;;;;;;5094754;28;20262;-68
2022/12/24 08:37:58;;;;;;;3.00;1.15;;;30.50;32.60;;;;;;5090994;28;20190;-68
2022/12/24 08:40:26;;;;;;;1.65;0.75;;;30.30;33.10;;;;;;5074435;28;20251;-74
2022/12/24 08:42:54;;;;;;;3.43;1.00;;;30.10;32.90;;;;;;5074081;28;20172;-68
2022/12/24 08:45:21;;;;;;;1.30;0.70;;;30.10;32.90;;;;;;5090543;28;20771;-72
2022/12/24 08:47:49;;;;;;;1.37;0.60;;;30.10;33.30;;;;;;5094426;28;20529;-69
2022/12/24 08:50:16;;;;;;;2.13;0.73;;;29.90;32.70;;;;;;5094348;28;20250;-71
2022/12/24 08:52:43;;;;;;;1.43;0.83;;;29.80;32.70;;;;;;5077382;28;20237;-68
2022/12/24 08:55:11;;;;;;;4.77;0.87;;;29.70;33.70;;;;;;5090180;28;20181;-69
2022/12/24 08:57:38;;;;;;;1.80;0.87;;;29.60;33.50;;;;;;5093937;28;20179;-66
2022/12/24 09:00:08;;;;;;;1.57;1.00;;;29.50;33.90;;;;;;5094038;28;20167;-68
2022/12/24 09:02:35;;;;;;;3.50;0.80;;;29.40;34.80;;;;;;5094076;28;20241;-69
2022/12/24 09:05:03;;;;;;;1.83;1.10;;;29.20;37.10;;;;;;5078740;28;20231;-69
2022/12/24 09:07:31;;;;;;;3.60;0.70;;;29.00;36.40;;;;;;5072165;28;20183;-73
2022/12/24 09:09:58;;;;;;;3.63;1.10;;;28.90;37.60;;;;;;5073561;28;20596;-68
2022/12/24 09:12:25;;;;;;;4.33;1.40;;;28.70;38.90;;;;;;5073502;28;20168;-68
2022/12/24 09:14:53;;;;;;;1.87;1.37;;;28.60;39.00;;;;;;5086214;28;20187;-68
2022/12/24 09:17:21;;;;;;;1.83;1.10;;;28.60;39.60;;;;;;5093658;28;20516;-68
2022/12/24 09:19:48;;;;;;;1.63;1.20;;;28.60;39.70;;;;;;5075941;28;20292;-72
2022/12/24 09:22:16;;;;;;;1.40;1.20;;;28.60;41.60;;;;;;5073399;28;20164;-67
2022/12/24 09:24:43;;;;;;;4.13;1.80;;;28.60;44.00;;;;;;5073220;28;20210;-67
2022/12/24 09:27:10;;;;;;;2.60;1.57;;;28.60;46.50;;;;;;5073530;28;20650;-67
2022/12/24 09:29:39;;;;;;;2.43;1.47;;;28.50;48.40;;;;;;5073446;28;20168;-68
2022/12/24 09:32:07;;;;;;;3.37;1.83;;;28.30;51.50;;;;;;5073371;28;20191;-68
2022/12/24 09:34:34;;;;;;;1.30;1.13;;;28.20;54.50;;;;;;5073434;28;20653;-68
2022/12/24 09:37:02;;;;;;;3.03;1.43;;;28.00;57.70;;;;;;5073076;28;20191;-68
2022/12/24 09:39:29;;;;;;;2.47;1.63;;;27.80;61.50;;;;;;5073081;28;20533;-68
2022/12/24 09:42:21;;;;;;;3.20;1.70;;;27.70;66.70;;;;;;5073174;28;20176;-68
2022/12/24 09:45:00;;;;;;;3.90;1.50;;;27.50;71.10;;;;;;5073149;28;20204;-68
2022/12/24 09:47:42;;;;;;;2.07;1.50;;;27.30;76.70;;;;;;5073207;28;20254;-68
2022/12/24 09:50:40;;;;;;;2.00;1.27;;;27.30;82.80;;;;;;5071726;28;20176;-69
2022/12/24 09:53:21;;;;;;;1.63;1.33;;;27.10;89.90;;;;;;5073245;28;20172;-68
2022/12/24 09:55:56;;;;;;;2.17;1.50;;;27.00;94.10;;;;;;5073021;28;20637;-69
2022/12/24 09:58:58;;;;;;;2.93;1.47;;;26.80;98.10;;;;;;5078232;28;20718;-68
2022/12/24 10:01:26;;;;;;;2.33;1.67;;;26.60;99.90;;;;;;5093221;28;20182;-67
2022/12/24 10:03:53;;;;;;;5.97;1.90;;;26.50;99.90;;;;;;5093014;28;20183;-68
2022/12/24 10:06:36;;;;;;;4.50;2.10;;;26.40;99.90;;;;;;5092982;28;20321;-70
2022/12/24 10:09:07;;;;;;;4.10;1.77;;;26.30;99.90;;;;;;5093242;28;20675;-72
2022/12/24 10:11:43;;;;;;;3.30;2.03;;;26.20;99.90;;;;;;5093445;28;20176;-69
2022/12/24 10:14:42;;;;;;;7.00;2.73;;;26.10;99.90;;;;;;5093371;28;20693;-68
2022/12/24 10:17:15;;;;;;;4.63;2.90;;;26.00;99.90;;;;;;5093088;28;20168;-68
2022/12/24 10:19:51;;;;;;;4.70;2.90;;;25.90;99.90;;;;;;5093149;28;20183;-68
2022/12/24 10:22:43;;;;;;;5.67;2.67;;;25.90;99.90;;;;;;5093180;28;20220;-69
2022/12/24 10:25:13;;;;;;;5.43;2.90;;;25.90;99.90;;;;;;5093203;28;20538;-68
2022/12/24 10:27:40;;;;;;;4.43;2.70;;;25.90;99.90;;;;;;5093192;28;20202;-74
2022/12/24 10:30:20;;;;;;;4.30;2.80;;;25.80;99.90;;;;;;5091509;28;20210;-69
2022/12/24 10:32:50;;;;;;;6.23;3.03;;;25.70;99.90;;;;;;5093133;28;20258;-74
2022/12/24 10:35:17;;;;;;;5.40;2.40;;;25.60;99.90;;;;;;5092886;28;20652;-68
2022/12/24 10:37:47;;;;;;;5.77;2.57;;;25.50;99.90;;;;;;5092651;28;20224;-69
2022/12/24 10:40:34;;;;;;;4.60;2.90;;;25.50;99.90;;;;;;5092832;28;20523;-69
2022/12/24 10:43:01;;;;;;;6.47;3.13;;;25.40;99.90;;;;;;5093173;28;20262;-69
2022/12/24 10:45:39;;;;;;;5.40;2.80;;;25.30;99.90;;;;;;5091534;28;20302;-68
2022/12/24 10:48:13;;;;;;;3.73;3.00;;;25.20;99.90;;;;;;5091498;28;20186;-69
2022/12/24 10:50:58;;;;;;;5.33;3.10;;;25.20;99.90;;;;;;5092961;28;20162;-68
2022/12/24 10:53:37;;;;;;;5.83;3.80;;;25.20;99.90;;;;;;5092888;28;20232;-68
2022/12/24 10:56:08;;;;;;;4.83;3.10;;;25.10;99.90;;;;;;5093371;28;20175;-68
2022/12/24 10:58:36;;;;;;;6.37;3.30;;;25.10;99.90;;;;;;5092512;28;20180;-69
2022/12/24 11:01:04;;;;;;;5.97;3.90;;;25.00;99.90;;;;;;5092723;28;20168;-72
2022/12/24 11:03:34;;;;;;;4.50;3.50;;;24.90;99.90;;;;;;5092896;28;20502;-69
2022/12/24 11:06:09;;;;;;;5.07;3.60;;;24.80;99.90;;;;;;5092449;28;20242;-69
2022/12/24 11:08:39;;;;;;;4.90;3.60;;;24.80;99.90;;;;;;5094468;28;20175;-69
2022/12/24 11:11:20;;;;;;;8.07;3.80;;;24.70;99.90;;;;;;5096557;28;20183;-69
2022/12/24 11:13:57;;;;;;;8.03;3.83;;;24.60;99.90;;;;;;5095077;28;20179;-69
2022/12/24 11:16:30;;;;;;;6.27;3.60;;;24.60;99.90;;;;;;5096195;28;20182;-69
2022/12/24 11:19:00;;;;;;;7.43;3.70;;;24.50;99.90;;;;;;5094899;28;20183;-69
2022/12/24 11:21:33;;;;;;;6.33;3.57;;;24.40;99.90;;;;;;5096348;28;20257;-69
2022/12/24 11:24:13;;;;;;;5.97;3.17;;;24.40;99.90;;;;;;5096370;28;20513;-68
2022/12/24 11:26:43;;;;;;;4.10;3.67;;;24.30;99.90;;;;;;5094650;28;20218;-68
2022/12/24 11:29:19;;;;;;;5.53;3.73;;;24.30;99.90;;;;;;5095975;28;20684;-68
2022/12/24 11:31:48;;;;;;;5.93;3.50;;;24.20;99.90;;;;;;5096502;28;20601;-67
2022/12/24 11:34:30;;;;;;;4.03;3.23;;;24.20;99.90;;;;;;5095905;28;20182;-69
2022/12/24 11:37:11;;;;;;;7.13;3.47;;;24.10;99.90;;;;;;5095857;28;20787;-69
2022/12/24 11:39:45;;;;;;;6.57;3.40;;;24.10;99.90;;;;;;5095917;28;20236;-67
2022/12/24 11:42:32;;;;;;;10.53;5.10;;;24.00;99.90;;;;;;5095990;28;20181;-68
2022/12/24 11:45:02;;;;;;;11.20;8.10;;;24.00;99.90;;;;;;5095617;28;20199;-68
2022/12/24 11:47:40;;;;;;;11.60;6.50;;;23.90;99.90;;;;;;5096065;28;20168;-68
2022/12/24 11:50:23;;;;;;;12.40;8.80;;;23.90;99.90;;;;;;5095758;28;20183;-70
2022/12/24 11:53:07;;;;;;;11.87;9.00;;;23.80;99.90;;;;;;5096223;28;20180;-69
2022/12/24 11:55:52;;;;;;;9.57;7.53;;;23.80;99.90;;;;;;5095682;28;20172;-68
2022/12/24 11:58:52;;;;;;;10.33;6.20;;;23.80;99.90;;;;;;5095589;28;20171;-68
2022/12/24 12:01:48;;;;;;;11.83;6.57;;;23.90;99.90;;;;;;5095436;28;20171;-69
2022/12/24 12:04:34;;;;;;;8.77;4.93;;;23.90;99.90;;;;;;5095158;28;20210;-68
2022/12/24 12:07:17;;;;;;;9.30;5.70;;;23.90;99.90;;;;;;5094225;28;20259;-67
2022/12/24 12:09:58;;;;;;;6.33;4.27;;;23.80;99.90;;;;;;5095782;28;20574;-68
2022/12/24 12:12:44;;;;;;;7.23;3.53;;;23.80;99.90;;;;;;5095213;28;20537;-68
2022/12/24 12:15:40;;;;;;;5.17;3.10;;;23.70;99.90;;;;;;5095412;28;20309;-68
2022/12/24 12:18:11;;;;;;;4.47;3.03;;;23.70;99.90;;;;;;5088418;28;20643;-74
2022/12/24 12:20:59;;;;;;;3.57;2.97;;;23.60;99.90;;;;;;5094915;28;20190;-72
2022/12/24 12:27:00;;;;;;;5.20;3.77;;;23.50;99.90;;;;;;5094324;28;20310;-69
2022/12/24 12:30:13;;;;;;;6.10;3.10;;;23.40;99.90;;;;;;5094721;28;20254;-69
2022/12/24 12:33:02;;;;;;;4.83;3.23;;;23.40;99.90;;;;;;5094947;28;20168;-69
2022/12/24 12:35:38;;;;;;;6.37;3.30;;;23.30;99.90;;;;;;5093791;28;20214;-71
2022/12/24 12:38:30;;;;;;;7.00;3.57;;;23.30;99.90;;;;;;5094873;28;20210;-70
2022/12/24 12:41:24;;;;;;;5.87;3.20;;;23.20;99.90;;;;;;5094663;28;20189;-69
2022/12/24 12:44:06;;;;;;;4.40;2.73;;;23.10;99.90;;;;;;5095127;28;20209;-68
2022/12/24 12:46:59;;;;;;;8.77;3.60;;;23.10;99.90;;;;;;5094864;28;20214;-68
2022/12/24 12:49:41;;;;;;;7.93;3.00;;;23.10;99.90;;;;;;5094721;28;20171;-72
2022/12/24 12:52:27;;;;;;;6.53;3.57;;;23.10;99.90;;;;;;5094538;28;20177;-69
2022/12/24 12:55:25;;;;;;;7.73;3.80;;;23.00;99.90;;;;;;5094701;28;20182;-68
2022/12/24 12:57:59;;;;;;;10.10;5.73;;;22.90;99.90;;;;;;5094433;28;20263;-68
2022/12/24 13:00:30;;;;;;;7.80;5.53;;;22.80;99.90;;;;;;5094584;28;20650;-72
2022/12/24 13:03:28;;;;;;;10.60;6.37;;;22.90;99.90;;;;;;5094355;28;20190;-73
2022/12/24 13:06:13;;;;;;;9.10;5.53;;;22.80;99.90;;;;;;5088922;28;20265;-70
2022/12/24 13:08:43;;;;;;;8.07;5.73;;;22.70;99.90;;;;;;5073814;28;20542;-69
2022/12/24 13:11:29;;;;;;;10.87;5.87;;;22.60;99.90;;;;;;5073923;28;20206;-73
2022/12/24 13:14:37;;;;;;;6.40;5.20;;;22.60;99.90;;;;;;5074329;28;20174;-70
2022/12/24 13:17:38;;;;;;;10.57;6.03;;;22.60;99.90;;;;;;5056227;28;20747;-69
2022/12/24 13:20:24;;;;;;;9.43;5.70;;;22.50;99.90;;;;;;5093977;28;20227;-67
2022/12/24 13:22:58;;;;;;;8.27;5.70;;;22.50;99.90;;;;;;5094030;28;20228;-68
2022/12/24 13:25:31;;;;;;;13.40;6.50;;;22.40;99.90;;;;;;5079522;28;20319;-71
2022/12/24 13:28:24;;;;;;;12.60;6.80;;;22.40;99.90;;;;;;5073479;28;20534;-69
2022/12/24 13:30:52;;;;;;;14.57;6.40;;;22.30;99.90;;;;;;5076333;28;20202;-68
2022/12/24 13:33:38;;;;;;;15.10;7.03;;;22.20;99.90;;;;;;5093812;28;20184;-70